createdAt,value
2019-01-31T00:02:29.014Z,17.77
2019-01-31T00:05:12.264Z,18.23
2019-01-31T00:07:52.650Z,17.07
2019-01-31T00:10:32.939Z,17.20
2019-01-31T00:13:22.998Z,17.00
2019-01-31T00:16:18.332Z,17.43
2019-01-31T00:19:13.902Z,17.37
2019-01-31T00:21:57.635Z,16.33
2019-01-31T00:24:31.940Z,18.00
2019-01-31T00:27:12.410Z,16.17
2019-01-31T00:30:04.359Z,16.93
2019-01-31T00:32:52.712Z,17.03
2019-01-31T00:35:42.146Z,17.57
2019-01-31T00:38:25.761Z,17.33
2019-01-31T00:41:15.031Z,18.37
2019-01-31T00:44:10.380Z,19.00
2019-01-31T00:46:44.556Z,17.70
2019-01-31T00:49:21.815Z,17.43
2019-01-31T00:52:05.085Z,18.20
2019-01-31T00:54:48.227Z,18.20
2019-01-31T00:57:36.385Z,18.87
2019-01-31T01:00:16.897Z,19.37
2019-01-31T01:03:16.416Z,17.23
2019-01-31T01:05:47.950Z,18.47
2019-01-31T01:08:28.672Z,17.80
2019-01-31T01:11:09.081Z,16.67
2019-01-31T01:13:43.203Z,18.23
2019-01-31T01:16:26.093Z,17.13
2019-01-31T01:19:03.287Z,19.70
2019-01-31T01:21:43.392Z,18.80
2019-01-31T01:24:34.333Z,16.53
2019-01-31T01:27:14.964Z,18.60
2019-01-31T01:29:52.483Z,17.80
2019-01-31T01:32:42.211Z,19.03
2019-01-31T01:35:22.670Z,19.00
2019-01-31T01:37:56.691Z,17.30
2019-01-31T01:40:28.239Z,18.07
2019-01-31T01:43:14.782Z,16.87
2019-01-31T01:46:04.101Z,19.17
2019-01-31T01:48:44.466Z,16.80
2019-01-31T01:51:18.579Z,18.13
2019-01-31T01:54:01.799Z,17.87
2019-01-31T01:56:33.512Z,18.90
2019-01-31T01:59:17.379Z,18.70
2019-01-31T02:02:04.231Z,18.03
2019-01-31T02:04:44.442Z,17.70
2019-01-31T02:07:18.581Z,17.67
2019-01-31T02:10:10.956Z,18.00
2019-01-31T02:12:51.150Z,18.77
2019-01-31T02:15:34.499Z,16.57
2019-01-31T02:18:06.008Z,18.57
2019-01-31T02:21:03.324Z,19.27
2019-01-31T02:24:11.879Z,16.47
2019-01-31T02:27:02.987Z,17.67
2019-01-31T02:29:43.561Z,18.07
2019-01-31T02:32:41.532Z,18.87
2019-01-31T02:35:18.864Z,18.97
2019-01-31T02:38:05.402Z,17.67
2019-01-31T02:40:39.687Z,18.00
2019-01-31T02:43:17.702Z,18.63
2019-01-31T02:46:05.975Z,18.17
2019-01-31T02:48:40.227Z,17.43
2019-01-31T02:51:28.160Z,19.10
2019-01-31T02:54:14.722Z,18.93
2019-01-31T02:56:49.317Z,17.90
2019-01-31T02:59:32.167Z,19.57
2019-01-31T03:02:12.543Z,19.13
2019-01-31T03:04:53.091Z,18.80
2019-01-31T03:07:27.411Z,19.30
2019-01-31T03:10:04.908Z,18.35
2019-01-31T03:12:57.449Z,17.73
2019-01-31T03:15:38.189Z,19.40
2019-01-31T03:18:09.726Z,17.90
2019-01-31T03:20:41.244Z,18.80
2019-01-31T03:23:15.384Z,18.80
2019-01-31T03:26:04.944Z,18.27
2019-01-31T03:28:54.152Z,19.60
2019-01-31T03:31:31.734Z,17.30
2019-01-31T03:34:18.176Z,18.97
2019-01-31T03:37:07.931Z,19.30
2019-01-31T03:40:07.139Z,18.77
2019-01-31T03:42:50.373Z,21.70
2019-01-31T03:45:33.848Z,20.90
2019-01-31T03:48:22.334Z,20.43
2019-01-31T03:51:09.022Z,18.97
2019-01-31T03:53:57.295Z,19.82
2019-01-31T03:56:34.527Z,17.60
2019-01-31T03:59:09.012Z,19.57
2019-01-31T04:01:49.186Z,18.80
2019-01-31T04:04:35.997Z,18.43
2019-01-31T04:07:04.439Z,18.73
2019-01-31T04:09:32.708Z,17.70
2019-01-31T04:12:00.971Z,18.73
2019-01-31T04:14:29.233Z,18.63
2019-01-31T04:16:57.506Z,19.20
2019-01-31T04:19:25.805Z,19.00
2019-01-31T04:21:54.071Z,19.57
2019-01-31T04:24:22.355Z,18.97
2019-01-31T04:26:50.648Z,18.80
2019-01-31T04:29:18.933Z,20.07
2019-01-31T04:31:47.191Z,20.10
2019-01-31T04:34:16.391Z,19.73
2019-01-31T04:36:44.637Z,19.70
2019-01-31T04:39:12.923Z,19.80
2019-01-31T04:41:41.215Z,20.23
2019-01-31T04:44:09.526Z,19.60
2019-01-31T04:46:38.463Z,17.50
2019-01-31T04:49:06.735Z,20.03
2019-01-31T04:51:34.999Z,20.93
2019-01-31T04:54:03.329Z,19.07
2019-01-31T04:56:31.608Z,20.50
2019-01-31T04:59:00.257Z,19.20
2019-01-31T05:01:28.580Z,21.00
2019-01-31T05:03:57.100Z,18.40
2019-01-31T05:06:25.395Z,19.67
2019-01-31T05:08:53.672Z,19.97
2019-01-31T05:11:21.916Z,19.43
2019-01-31T05:13:50.190Z,19.37
2019-01-31T05:16:18.457Z,19.73
2019-01-31T05:18:46.734Z,20.43
2019-01-31T05:21:14.992Z,20.13
2019-01-31T05:23:43.240Z,21.10
2019-01-31T05:26:11.510Z,20.53
2019-01-31T05:28:39.761Z,19.97
2019-01-31T05:31:08.048Z,20.33
2019-01-31T05:33:36.371Z,18.63
2019-01-31T05:36:04.648Z,20.17
2019-01-31T05:38:32.911Z,18.87
2019-01-31T05:41:01.200Z,20.33
2019-01-31T05:43:29.453Z,18.27
2019-01-31T05:45:57.709Z,19.37
2019-01-31T05:48:25.959Z,20.37
2019-01-31T05:50:54.230Z,19.73
2019-01-31T05:53:22.500Z,20.63
2019-01-31T05:55:50.778Z,20.17
2019-01-31T05:58:19.047Z,20.20
2019-01-31T06:00:47.312Z,20.00
2019-01-31T06:03:16.565Z,21.83
2019-01-31T06:05:44.893Z,21.07
2019-01-31T06:08:13.141Z,21.27
2019-01-31T06:10:41.430Z,21.87
2019-01-31T06:13:09.691Z,21.47
2019-01-31T06:15:38.043Z,20.83
2019-01-31T06:18:06.415Z,21.57
2019-01-31T06:20:34.676Z,21.67
2019-01-31T06:23:02.951Z,22.53
2019-01-31T06:25:31.565Z,20.83
2019-01-31T06:27:59.823Z,21.77
2019-01-31T06:30:28.118Z,22.37
2019-01-31T06:32:56.394Z,23.10
2019-01-31T06:35:24.735Z,23.60
2019-01-31T06:37:53.003Z,23.87
2019-01-31T06:40:21.783Z,24.27
2019-01-31T06:42:50.038Z,22.90
2019-01-31T06:45:20.140Z,25.07
2019-01-31T06:47:48.401Z,25.70
2019-01-31T06:50:16.779Z,27.03
2019-01-31T06:52:45.032Z,27.93
2019-01-31T06:55:13.316Z,27.73
2019-01-31T06:57:41.559Z,29.67
2019-01-31T07:00:18.783Z,30.40
2019-01-31T07:02:47.055Z,33.60
2019-01-31T07:05:15.314Z,30.10
2019-01-31T07:07:43.571Z,25.97
2019-01-31T07:10:22.570Z,26.03
2019-01-31T07:12:50.836Z,22.80
2019-01-31T07:15:19.142Z,24.13
2019-01-31T07:17:47.461Z,23.07
2019-01-31T07:20:17.064Z,21.43
2019-01-31T07:22:45.328Z,23.47
2019-01-31T07:25:19.011Z,22.97
2019-01-31T07:27:47.271Z,23.43
2019-01-31T07:30:17.483Z,22.00
2019-01-31T07:32:45.754Z,22.40
2019-01-31T07:35:14.564Z,21.00
2019-01-31T07:37:42.814Z,21.83
2019-01-31T07:40:22.027Z,22.97
2019-01-31T07:42:50.666Z,21.47
2019-01-31T07:45:21.887Z,22.73
2019-01-31T07:47:50.154Z,22.73
2019-01-31T07:50:18.995Z,20.30
2019-01-31T07:52:47.236Z,20.93
2019-01-31T07:55:15.520Z,21.97
2019-01-31T07:57:43.783Z,21.77
2019-01-31T08:00:16.999Z,20.83
2019-01-31T08:02:45.250Z,22.17
2019-01-31T08:05:15.926Z,22.23
2019-01-31T08:07:44.172Z,21.90
2019-01-31T08:10:20.715Z,22.10
2019-01-31T08:12:48.967Z,22.67
2019-01-31T08:15:18.579Z,21.80
2019-01-31T08:17:46.967Z,21.87
2019-01-31T08:20:19.727Z,24.57
2019-01-31T08:22:47.969Z,23.93
2019-01-31T08:25:19.503Z,22.33
2019-01-31T08:27:47.835Z,21.90
2019-01-31T08:30:22.559Z,22.13
2019-01-31T08:32:50.800Z,20.97
2019-01-31T08:35:19.067Z,20.43
2019-01-31T08:37:47.339Z,21.33
2019-01-31T08:40:15.611Z,22.37
2019-01-31T08:42:43.879Z,22.20
2019-01-31T08:45:13.456Z,22.87
2019-01-31T08:48:01.149Z,22.33
2019-01-31T08:50:32.375Z,21.23
2019-01-31T08:53:00.739Z,21.67
2019-01-31T08:55:29.019Z,20.90
2019-01-31T08:57:57.257Z,21.73
2019-01-31T09:00:28.772Z,21.37
2019-01-31T09:02:57.027Z,21.63
2019-01-31T09:05:25.291Z,21.57
2019-01-31T09:07:53.577Z,20.97
2019-01-31T09:10:26.841Z,21.83
2019-01-31T09:12:55.177Z,20.60
2019-01-31T09:15:24.862Z,19.80
2019-01-31T09:17:53.131Z,21.43
2019-01-31T09:20:27.267Z,20.10
2019-01-31T09:23:05.036Z,20.03
2019-01-31T09:25:51.597Z,21.23
2019-01-31T09:28:35.156Z,21.30
2019-01-31T09:31:23.099Z,20.57
2019-01-31T09:33:57.341Z,21.20
2019-01-31T09:36:52.816Z,19.90
2019-01-31T09:39:29.852Z,20.77
2019-01-31T09:42:26.253Z,18.57
2019-01-31T09:44:53.193Z,20.40
2019-01-31T09:47:27.411Z,20.43
2019-01-31T09:50:01.817Z,19.27
2019-01-31T09:52:49.863Z,19.30
2019-01-31T09:55:27.112Z,17.57
2019-01-31T09:57:58.640Z,18.10
2019-01-31T10:00:32.803Z,18.53
2019-01-31T10:03:18.867Z,18.97
2019-01-31T10:05:53.387Z,18.57
2019-01-31T10:08:30.815Z,18.83
2019-01-31T10:11:20.306Z,19.17
2019-01-31T10:13:54.419Z,18.67
2019-01-31T10:16:31.950Z,18.13
2019-01-31T10:19:36.473Z,16.53
2019-01-31T10:22:26.120Z,17.00
2019-01-31T10:25:09.419Z,16.67
2019-01-31T10:27:58.772Z,16.03
2019-01-31T10:30:47.935Z,15.20
2019-01-31T10:33:31.292Z,16.83
2019-01-31T10:36:23.245Z,17.37
2019-01-31T10:38:57.225Z,14.40
2019-01-31T10:41:45.543Z,16.93
2019-01-31T10:44:29.012Z,14.97
2019-01-31T10:47:17.023Z,15.77
2019-01-31T10:50:08.206Z,12.53
2019-01-31T10:52:48.251Z,12.07
2019-01-31T10:55:39.722Z,12.43
2019-01-31T10:58:11.249Z,10.60
2019-01-31T11:00:48.756Z,12.50
2019-01-31T11:03:32.202Z,13.00
2019-01-31T11:06:12.700Z,12.00
2019-01-31T11:08:49.819Z,11.87
2019-01-31T11:11:21.344Z,11.23
2019-01-31T11:14:05.171Z,12.33
2019-01-31T11:16:54.191Z,9.60
2019-01-31T11:19:40.616Z,12.03
2019-01-31T11:22:28.815Z,7.90
2019-01-31T11:25:12.436Z,7.13
2019-01-31T11:28:06.745Z,6.93
2019-01-31T11:30:41.098Z,8.47
2019-01-31T11:33:21.217Z,7.67
2019-01-31T11:36:07.350Z,7.87
2019-01-31T11:38:44.561Z,8.70
2019-01-31T11:41:22.063Z,7.50
2019-01-31T11:43:56.315Z,7.47
2019-01-31T11:46:48.575Z,6.70
2019-01-31T11:49:29.660Z,6.33
2019-01-31T11:52:20.244Z,5.83
2019-01-31T11:55:00.512Z,5.30
2019-01-31T11:57:50.103Z,6.70
2019-01-31T12:00:19.984Z,4.63
2019-01-31T12:02:54.704Z,5.70
2019-01-31T12:05:18.248Z,6.93
2019-01-31T12:07:47.418Z,6.53
2019-01-31T12:10:15.652Z,5.67
2019-01-31T12:12:44.030Z,7.37
2019-01-31T12:15:12.355Z,6.33
2019-01-31T12:17:40.615Z,5.53
2019-01-31T12:20:13.540Z,6.10
2019-01-31T12:22:42.122Z,6.10
2019-01-31T12:25:10.385Z,7.13
2019-01-31T12:27:38.738Z,90.73
2019-01-31T12:30:10.419Z,20.57
2019-01-31T12:32:38.682Z,40.07
2019-01-31T12:35:06.944Z,16.27
2019-01-31T12:37:35.215Z,12.77
2019-01-31T12:40:04.720Z,6.83
2019-01-31T12:42:33.009Z,7.00
2019-01-31T12:45:01.335Z,7.40
2019-01-31T12:47:29.619Z,12.77
2019-01-31T12:49:57.876Z,10.70
2019-01-31T12:52:26.159Z,10.33
2019-01-31T12:54:54.415Z,10.40
2019-01-31T12:57:22.681Z,8.70
2019-01-31T12:59:50.943Z,9.80
2019-01-31T13:02:19.220Z,9.40
2019-01-31T13:04:47.759Z,8.47
2019-01-31T13:07:16.035Z,9.10
2019-01-31T13:09:44.295Z,8.20
2019-01-31T13:12:12.580Z,7.60
2019-01-31T13:14:40.836Z,7.70
2019-01-31T13:17:09.096Z,7.40
2019-01-31T13:19:37.352Z,7.27
2019-01-31T13:22:05.608Z,7.60
2019-01-31T13:24:33.879Z,6.77
2019-01-31T13:27:02.116Z,7.90
2019-01-31T13:29:30.408Z,7.97
2019-01-31T13:31:58.656Z,8.10
2019-01-31T13:34:26.933Z,8.87
2019-01-31T13:36:55.229Z,8.63
2019-01-31T13:39:23.576Z,8.63
2019-01-31T13:41:51.831Z,8.37
2019-01-31T13:44:20.097Z,9.33
2019-01-31T13:46:48.351Z,9.13
2019-01-31T13:49:18.040Z,9.47
2019-01-31T13:51:46.471Z,8.07
2019-01-31T13:54:14.744Z,9.20
2019-01-31T13:56:45.764Z,9.43
2019-01-31T13:59:12.971Z,9.00
2019-01-31T14:01:41.223Z,9.57
2019-01-31T14:04:09.535Z,9.70
2019-01-31T14:06:37.839Z,9.20
2019-01-31T14:09:07.704Z,10.03
2019-01-31T14:11:35.944Z,10.03
2019-01-31T14:14:09.305Z,10.27
2019-01-31T14:16:34.260Z,10.57
2019-01-31T14:19:02.544Z,10.80
2019-01-31T14:21:30.832Z,10.27
2019-01-31T14:23:59.101Z,10.97
2019-01-31T14:26:27.340Z,10.47
2019-01-31T14:28:55.596Z,10.07
2019-01-31T14:31:23.855Z,10.53
2019-01-31T14:33:52.113Z,11.70
2019-01-31T14:36:20.442Z,11.63
2019-01-31T14:38:48.719Z,11.03
2019-01-31T14:41:18.191Z,12.10
2019-01-31T14:43:46.462Z,13.77
2019-01-31T14:46:14.715Z,14.50
2019-01-31T14:48:43.091Z,14.43
2019-01-31T14:51:11.347Z,14.90
2019-01-31T14:53:39.631Z,14.33
2019-01-31T14:56:07.887Z,11.90
2019-01-31T14:58:36.144Z,11.17
2019-01-31T15:01:04.404Z,11.23
2019-01-31T15:03:32.714Z,11.67
2019-01-31T15:06:01.007Z,11.37
2019-01-31T15:08:29.303Z,10.77
2019-01-31T15:10:57.579Z,10.67
2019-01-31T15:13:25.822Z,12.03
2019-01-31T15:15:54.108Z,11.73
2019-01-31T15:18:22.413Z,11.93
2019-01-31T15:20:50.682Z,11.27
2019-01-31T15:23:18.938Z,10.77
2019-01-31T15:25:48.020Z,11.33
2019-01-31T15:28:16.274Z,11.70
2019-01-31T15:30:44.551Z,10.90
2019-01-31T15:33:12.815Z,13.03
2019-01-31T15:35:41.161Z,17.47
2019-01-31T15:38:09.419Z,17.90
2019-01-31T15:40:42.981Z,16.93
2019-01-31T15:43:11.241Z,16.13
2019-01-31T15:45:39.507Z,16.60
2019-01-31T15:48:10.592Z,14.10
2019-01-31T15:50:38.487Z,13.33
2019-01-31T15:53:06.744Z,14.83
2019-01-31T15:55:35.079Z,18.00
2019-01-31T15:58:03.340Z,22.80
2019-01-31T16:00:41.869Z,24.90
2019-01-31T16:03:11.960Z,23.10
2019-01-31T16:05:40.235Z,17.60
2019-01-31T16:08:08.922Z,17.63
2019-01-31T16:10:37.188Z,12.97
2019-01-31T16:13:05.650Z,14.53
2019-01-31T16:15:34.307Z,13.50
2019-01-31T16:18:02.608Z,13.63
2019-01-31T16:20:30.883Z,15.03
2019-01-31T16:22:59.139Z,16.17
2019-01-31T16:25:27.487Z,16.33
2019-01-31T16:27:55.814Z,15.77
2019-01-31T16:30:24.160Z,15.87
2019-01-31T16:32:52.425Z,16.77
2019-01-31T16:35:20.755Z,16.47
2019-01-31T16:37:49.948Z,17.07
2019-01-31T16:40:18.759Z,16.07
2019-01-31T16:42:47.018Z,16.10
2019-01-31T16:45:16.224Z,15.30
2019-01-31T16:47:44.476Z,17.70
2019-01-31T16:50:15.989Z,14.93
2019-01-31T16:52:44.312Z,15.97
2019-01-31T16:55:14.640Z,17.10
2019-01-31T16:57:42.955Z,15.83
2019-01-31T17:00:22.799Z,17.07
2019-01-31T17:02:51.077Z,15.90
2019-01-31T17:05:21.355Z,16.17
2019-01-31T17:07:49.696Z,15.37
2019-01-31T17:10:18.337Z,14.40
2019-01-31T17:12:46.773Z,14.67
2019-01-31T17:15:18.160Z,15.37
2019-01-31T17:17:46.413Z,14.47
2019-01-31T17:20:20.895Z,14.80
2019-01-31T17:22:49.152Z,15.07
2019-01-31T17:25:18.613Z,14.60
2019-01-31T17:27:47.088Z,14.20
2019-01-31T17:30:22.728Z,14.73
2019-01-31T17:32:51.054Z,15.10
2019-01-31T17:35:19.329Z,14.27
2019-01-31T17:37:48.322Z,14.97
2019-01-31T17:40:25.098Z,14.03
2019-01-31T17:42:53.354Z,12.80
2019-01-31T17:45:30.062Z,13.60
2019-01-31T17:47:51.714Z,14.47
2019-01-31T17:50:20.059Z,14.00
2019-01-31T17:52:48.323Z,13.57
2019-01-31T17:55:18.939Z,13.80
2019-01-31T17:57:47.184Z,14.20
2019-01-31T18:00:24.327Z,14.83
2019-01-31T18:02:51.684Z,14.33
2019-01-31T18:05:19.957Z,15.43
2019-01-31T18:07:48.388Z,15.23
2019-01-31T18:10:19.359Z,16.10
2019-01-31T18:12:48.388Z,16.67
2019-01-31T18:15:16.676Z,15.90
2019-01-31T18:17:44.946Z,15.03
2019-01-31T18:20:16.085Z,17.33
2019-01-31T18:22:44.363Z,16.37
2019-01-31T18:25:12.627Z,17.80
2019-01-31T18:27:40.919Z,18.33
2019-01-31T18:30:21.041Z,18.37
2019-01-31T18:32:49.321Z,18.27
2019-01-31T18:35:18.549Z,21.53
2019-01-31T18:37:46.888Z,19.67
2019-01-31T18:40:25.905Z,20.83
2019-01-31T18:42:54.237Z,20.37
2019-01-31T18:45:24.448Z,21.50
2019-01-31T18:47:52.719Z,21.60
2019-01-31T18:50:23.227Z,20.47
2019-01-31T18:52:51.509Z,18.77
2019-01-31T18:55:19.868Z,19.40
2019-01-31T18:57:48.499Z,18.13
2019-01-31T19:00:21.659Z,18.13
2019-01-31T19:02:49.939Z,18.63
2019-01-31T19:05:18.504Z,17.10
2019-01-31T19:07:46.784Z,19.87
2019-01-31T19:10:15.654Z,18.17
2019-01-31T19:12:43.931Z,17.87
2019-01-31T19:15:15.027Z,18.40
2019-01-31T19:17:43.322Z,18.13
2019-01-31T19:20:19.771Z,18.40
2019-01-31T19:22:48.561Z,20.17
2019-01-31T19:25:18.883Z,19.47
2019-01-31T19:27:47.293Z,21.07
2019-01-31T19:30:27.202Z,23.60
2019-01-31T19:32:55.761Z,22.50
2019-01-31T19:35:24.261Z,21.13
2019-01-31T19:38:01.444Z,21.70
2019-01-31T19:40:25.541Z,20.63
2019-01-31T19:42:54.212Z,18.63
2019-01-31T19:45:28.335Z,19.33
2019-01-31T19:47:56.748Z,19.27
2019-01-31T19:50:25.175Z,20.00
2019-01-31T19:52:53.634Z,19.53
2019-01-31T19:55:22.077Z,20.07
2019-01-31T19:57:50.437Z,21.63
2019-01-31T20:00:21.556Z,21.50
2019-01-31T20:02:49.842Z,18.83
2019-01-31T20:05:18.655Z,19.47
2019-01-31T20:07:46.912Z,19.30
2019-01-31T20:10:23.776Z,19.87
2019-01-31T20:12:52.047Z,19.00
2019-01-31T20:15:20.307Z,18.43
2019-01-31T20:17:48.769Z,20.07
2019-01-31T20:20:25.352Z,19.77
2019-01-31T20:22:54.493Z,18.07
2019-01-31T20:25:23.009Z,20.17
2019-01-31T20:27:51.300Z,20.03
2019-01-31T20:30:22.818Z,21.50
2019-01-31T20:32:51.198Z,20.93
2019-01-31T20:35:20.899Z,20.57
2019-01-31T20:37:49.163Z,21.97
2019-01-31T20:40:26.173Z,21.20
2019-01-31T20:42:54.453Z,20.87
2019-01-31T20:45:22.755Z,22.80
2019-01-31T20:47:51.021Z,20.70
2019-01-31T20:50:25.487Z,20.73
2019-01-31T20:52:53.747Z,23.37
2019-01-31T20:55:22.127Z,23.03
2019-01-31T20:57:50.384Z,22.13
2019-01-31T21:00:36.944Z,21.17
2019-01-31T21:03:07.028Z,22.97
2019-01-31T21:05:35.305Z,21.83
2019-01-31T21:08:03.987Z,23.40
2019-01-31T21:10:32.380Z,22.53
2019-01-31T21:13:00.651Z,23.73
2019-01-31T21:15:28.943Z,23.13
2019-01-31T21:17:57.215Z,23.35
2019-01-31T21:20:26.864Z,24.47
2019-01-31T21:22:55.269Z,24.60
2019-01-31T21:25:23.678Z,26.07
2019-01-31T21:27:52.085Z,27.37
2019-01-31T21:30:22.895Z,27.33
2019-01-31T21:32:51.162Z,27.47
2019-01-31T21:35:20.000Z,25.43
2019-01-31T21:37:48.873Z,26.37
2019-01-31T21:40:18.889Z,24.93
2019-01-31T21:42:47.159Z,25.90
2019-01-31T21:45:18.034Z,24.73
2019-01-31T21:47:46.328Z,25.53
2019-01-31T21:50:17.380Z,25.73
2019-01-31T21:52:45.659Z,25.37
2019-01-31T21:55:14.671Z,26.13
2019-01-31T21:57:42.930Z,26.03
2019-01-31T22:00:16.988Z,24.23
2019-01-31T22:02:45.312Z,24.63
2019-01-31T22:05:15.224Z,23.77
2019-01-31T22:07:43.607Z,26.33
2019-01-31T22:10:14.126Z,26.73
2019-01-31T22:12:42.551Z,26.00
2019-01-31T22:15:25.454Z,26.67
2019-01-31T22:17:53.711Z,27.17
2019-01-31T22:20:21.974Z,26.37
2019-01-31T22:22:50.235Z,25.87
2019-01-31T22:25:22.454Z,27.83
2019-01-31T22:27:50.735Z,25.90
2019-01-31T22:30:24.657Z,26.70
2019-01-31T22:32:52.991Z,26.10
2019-01-31T22:35:21.289Z,28.57
2019-01-31T22:37:49.723Z,28.23
2019-01-31T22:40:18.919Z,28.13
2019-01-31T22:42:47.216Z,27.30
2019-01-31T22:45:22.890Z,27.27
2019-01-31T22:47:51.147Z,29.67
2019-01-31T22:50:21.066Z,29.37
2019-01-31T22:52:49.403Z,29.30
2019-01-31T22:55:19.545Z,27.63
2019-01-31T22:57:47.921Z,30.50
2019-01-31T23:00:32.568Z,29.27
2019-01-31T23:03:00.900Z,28.17
2019-01-31T23:05:29.184Z,26.63
2019-01-31T23:07:57.452Z,28.63
2019-01-31T23:10:25.761Z,29.73
2019-01-31T23:12:54.047Z,28.60
2019-01-31T23:15:22.308Z,30.57
2019-01-31T23:17:50.579Z,31.30
2019-01-31T23:20:19.139Z,29.63
2019-01-31T23:22:47.429Z,30.80
2019-01-31T23:25:15.771Z,31.30
2019-01-31T23:27:44.095Z,31.37
2019-01-31T23:30:14.819Z,30.17
2019-01-31T23:32:43.087Z,31.40
2019-01-31T23:35:11.348Z,30.43
2019-01-31T23:37:39.681Z,31.17
2019-01-31T23:40:12.321Z,31.90
2019-01-31T23:42:40.595Z,31.97
2019-01-31T23:45:18.005Z,32.37
2019-01-31T23:47:48.985Z,33.80
2019-01-31T23:50:16.279Z,32.70
2019-01-31T23:52:44.536Z,34.07
2019-01-31T23:55:14.524Z,32.37
2019-01-31T23:57:42.811Z,33.50
